sensor_id;sensor_type;location;lat;lon;timestamp;temperature;humidity
63260;DHT22;49390;51.380;0.098;2023-02-28T00:01:29;4.30;99.90
63260;DHT22;49390;51.380;0.098;2023-02-28T00:03:58;4.30;99.90
63260;DHT22;49390;51.380;0.098;2023-02-28T00:06:26;4.30;99.90
63260;DHT22;49390;51.380;0.098;2023-02-28T00:08:54;4.20;99.90
63260;DHT22;49390;51.380;0.098;2023-02-28T00:11:22;4.20;99.90
63260;DHT22;49390;51.380;0.098;2023-02-28T00:13:50;4.20;99.90
63260;DHT22;49390;51.380;0.098;2023-02-28T00:16:21;4.20;99.90
63260;DHT22;49390;51.380;0.098;2023-02-28T00:18:50;4.20;99.90
63260;DHT22;49390;51.380;0.098;2023-02-28T00:21:19;4.20;99.90
63260;DHT22;49390;51.380;0.098;2023-02-28T00:23:47;4.20;99.90
63260;DHT22;49390;51.380;0.098;2023-02-28T00:26:15;4.20;99.90
63260;DHT22;49390;51.380;0.098;2023-02-28T00:28:45;4.10;99.90
63260;DHT22;49390;51.380;0.098;2023-02-28T00:31:13;4.20;99.90
63260;DHT22;49390;51.380;0.098;2023-02-28T00:33:41;4.10;99.90
63260;DHT22;49390;51.380;0.098;2023-02-28T00:36:11;4.10;99.90
63260;DHT22;49390;51.380;0.098;2023-02-28T00:38:40;4.00;99.90
63260;DHT22;49390;51.380;0.098;2023-02-28T00:41:08;4.10;99.90
63260;DHT22;49390;51.380;0.098;2023-02-28T00:43:37;4.10;99.90
63260;DHT22;49390;51.380;0.098;2023-02-28T00:46:06;4.00;99.90
63260;DHT22;49390;51.380;0.098;2023-02-28T00:48:34;4.00;99.90
63260;DHT22;49390;51.380;0.098;2023-02-28T00:51:03;4.00;99.90
63260;DHT22;49390;51.380;0.098;2023-02-28T00:53:31;4.00;99.90
63260;DHT22;49390;51.380;0.098;2023-02-28T00:56:00;3.90;99.90
63260;DHT22;49390;51.380;0.098;2023-02-28T00:58:29;3.90;99.90
63260;DHT22;49390;51.380;0.098;2023-02-28T01:00:57;3.90;99.90
63260;DHT22;49390;51.380;0.098;2023-02-28T01:03:25;3.90;99.90
63260;DHT22;49390;51.380;0.098;2023-02-28T01:05:53;3.90;99.90
63260;DHT22;49390;51.380;0.098;2023-02-28T01:08:23;3.90;99.90
63260;DHT22;49390;51.380;0.098;2023-02-28T01:10:51;3.90;99.90
63260;DHT22;49390;51.380;0.098;2023-02-28T01:13:20;3.90;99.90
63260;DHT22;49390;51.380;0.098;2023-02-28T01:15:54;3.80;99.90
63260;DHT22;49390;51.380;0.098;2023-02-28T01:18:23;3.80;99.90
63260;DHT22;49390;51.380;0.098;2023-02-28T01:20:52;3.80;99.90
63260;DHT22;49390;51.380;0.098;2023-02-28T01:23:22;3.80;99.90
63260;DHT22;49390;51.380;0.098;2023-02-28T01:25:51;3.80;99.90
63260;DHT22;49390;51.380;0.098;2023-02-28T01:28:19;3.70;99.90
63260;DHT22;49390;51.380;0.098;2023-02-28T01:30:49;3.70;99.90
63260;DHT22;49390;51.380;0.098;2023-02-28T01:33:17;3.60;99.90
63260;DHT22;49390;51.380;0.098;2023-02-28T01:35:46;3.60;99.90
63260;DHT22;49390;51.380;0.098;2023-02-28T01:38:14;3.60;99.90
63260;DHT22;49390;51.380;0.098;2023-02-28T01:40:50;3.60;99.90
63260;DHT22;49390;51.380;0.098;2023-02-28T01:46:11;3.60;99.90
63260;DHT22;49390;51.380;0.098;2023-02-28T01:48:50;3.50;99.90
63260;DHT22;49390;51.380;0.098;2023-02-28T01:51:28;3.50;99.90
63260;DHT22;49390;51.380;0.098;2023-02-28T01:54:09;3.50;99.90
63260;DHT22;49390;51.380;0.098;2023-02-28T01:56:46;3.40;99.90
63260;DHT22;49390;51.380;0.098;2023-02-28T01:59:22;3.40;99.90
63260;DHT22;49390;51.380;0.098;2023-02-28T02:01:51;3.40;99.90
63260;DHT22;49390;51.380;0.098;2023-02-28T02:04:19;3.40;99.90
63260;DHT22;49390;51.380;0.098;2023-02-28T02:06:49;3.40;99.90
63260;DHT22;49390;51.380;0.098;2023-02-28T02:09:17;3.40;99.90
63260;DHT22;49390;51.380;0.098;2023-02-28T02:11:46;3.40;99.90
63260;DHT22;49390;51.380;0.098;2023-02-28T02:14:45;3.40;99.90
63260;DHT22;49390;51.380;0.098;2023-02-28T02:17:29;3.40;99.90
63260;DHT22;49390;51.380;0.098;2023-02-28T02:29:21;3.40;99.90
63260;DHT22;49390;51.380;0.098;2023-02-28T02:35:01;3.40;99.90
63260;DHT22;49390;51.380;0.098;2023-02-28T02:37:39;3.40;99.90
63260;DHT22;49390;51.380;0.098;2023-02-28T02:42:49;3.40;99.90
63260;DHT22;49390;51.380;0.098;2023-02-28T02:45:25;3.40;99.90
63260;DHT22;49390;51.380;0.098;2023-02-28T02:47:56;3.40;99.90
63260;DHT22;49390;51.380;0.098;2023-02-28T02:50:31;3.40;99.90
63260;DHT22;49390;51.380;0.098;2023-02-28T02:53:02;3.40;99.90
63260;DHT22;49390;51.380;0.098;2023-02-28T02:55:36;3.30;99.90
63260;DHT22;49390;51.380;0.098;2023-02-28T02:58:10;3.30;99.90
63260;DHT22;49390;51.380;0.098;2023-02-28T03:00:43;3.30;99.90
63260;DHT22;49390;51.380;0.098;2023-02-28T03:03:12;3.20;99.90
63260;DHT22;49390;51.380;0.098;2023-02-28T03:05:46;3.20;99.90
63260;DHT22;49390;51.380;0.098;2023-02-28T03:08:14;3.20;99.90
63260;DHT22;49390;51.380;0.098;2023-02-28T03:10:45;3.20;99.90
63260;DHT22;49390;51.380;0.098;2023-02-28T03:18:48;3.10;99.90
63260;DHT22;49390;51.380;0.098;2023-02-28T03:21:40;3.10;99.90
63260;DHT22;49390;51.380;0.098;2023-02-28T03:27:30;3.20;99.90
63260;DHT22;49390;51.380;0.098;2023-02-28T03:30:39;3.10;99.90
63260;DHT22;49390;51.380;0.098;2023-02-28T03:35:57;3.10;99.90
63260;DHT22;49390;51.380;0.098;2023-02-28T03:38:35;3.10;99.90
63260;DHT22;49390;51.380;0.098;2023-02-28T03:41:23;3.20;99.90
63260;DHT22;49390;51.380;0.098;2023-02-28T03:44:03;3.10;99.90
63260;DHT22;49390;51.380;0.098;2023-02-28T03:46:36;3.10;99.90
63260;DHT22;49390;51.380;0.098;2023-02-28T03:49:12;3.10;99.90
63260;DHT22;49390;51.380;0.098;2023-02-28T03:51:43;3.10;99.90
63260;DHT22;49390;51.380;0.098;2023-02-28T03:54:17;3.10;99.90
63260;DHT22;49390;51.380;0.098;2023-02-28T03:56:54;3.00;99.90
63260;DHT22;49390;51.380;0.098;2023-02-28T03:59:31;3.10;99.90
63260;DHT22;49390;51.380;0.098;2023-02-28T04:02:01;3.00;99.90
63260;DHT22;49390;51.380;0.098;2023-02-28T04:04:30;3.00;99.90
63260;DHT22;49390;51.380;0.098;2023-02-28T04:07:05;3.00;99.90
63260;DHT22;49390;51.380;0.098;2023-02-28T04:09:34;3.00;99.90
63260;DHT22;49390;51.380;0.098;2023-02-28T04:12:02;3.00;99.90
63260;DHT22;49390;51.380;0.098;2023-02-28T04:14:30;3.00;99.90
63260;DHT22;49390;51.380;0.098;2023-02-28T04:16:59;3.00;99.90
63260;DHT22;49390;51.380;0.098;2023-02-28T04:19:27;3.00;99.90
63260;DHT22;49390;51.380;0.098;2023-02-28T04:21:55;3.00;99.90
63260;DHT22;49390;51.380;0.098;2023-02-28T04:24:26;3.00;99.90
63260;DHT22;49390;51.380;0.098;2023-02-28T04:26:55;3.00;99.90
63260;DHT22;49390;51.380;0.098;2023-02-28T04:29:30;3.00;99.90
63260;DHT22;49390;51.380;0.098;2023-02-28T04:32:02;3.00;99.90
63260;DHT22;49390;51.380;0.098;2023-02-28T04:34:32;2.90;99.90
63260;DHT22;49390;51.380;0.098;2023-02-28T04:37:01;2.90;99.90
63260;DHT22;49390;51.380;0.098;2023-02-28T04:39:44;2.90;99.90
63260;DHT22;49390;51.380;0.098;2023-02-28T04:42:12;2.90;99.90
63260;DHT22;49390;51.380;0.098;2023-02-28T04:44:41;2.90;99.90
63260;DHT22;49390;51.380;0.098;2023-02-28T04:47:10;2.90;99.90
63260;DHT22;49390;51.380;0.098;2023-02-28T04:49:38;2.90;99.90
63260;DHT22;49390;51.380;0.098;2023-02-28T04:52:05;2.80;99.90
63260;DHT22;49390;51.380;0.098;2023-02-28T04:54:35;2.90;99.90
63260;DHT22;49390;51.380;0.098;2023-02-28T04:57:03;2.90;99.90
63260;DHT22;49390;51.380;0.098;2023-02-28T04:59:32;2.90;99.90
63260;DHT22;49390;51.380;0.098;2023-02-28T05:02:00;2.90;99.90
63260;DHT22;49390;51.380;0.098;2023-02-28T05:04:34;2.80;99.90
63260;DHT22;49390;51.380;0.098;2023-02-28T05:07:03;2.90;99.90
63260;DHT22;49390;51.380;0.098;2023-02-28T05:09:31;2.80;99.90
63260;DHT22;49390;51.380;0.098;2023-02-28T05:12:00;2.80;99.90
63260;DHT22;49390;51.380;0.098;2023-02-28T05:14:28;2.80;99.90
63260;DHT22;49390;51.380;0.098;2023-02-28T05:16:56;2.70;99.90
63260;DHT22;49390;51.380;0.098;2023-02-28T05:19:24;2.70;99.90
63260;DHT22;49390;51.380;0.098;2023-02-28T05:21:54;2.70;99.90
63260;DHT22;49390;51.380;0.098;2023-02-28T05:24:22;2.70;99.90
63260;DHT22;49390;51.380;0.098;2023-02-28T05:26:52;2.70;99.90
63260;DHT22;49390;51.380;0.098;2023-02-28T05:29:21;2.70;99.90
63260;DHT22;49390;51.380;0.098;2023-02-28T05:31:49;2.70;99.90
63260;DHT22;49390;51.380;0.098;2023-02-28T05:34:18;2.60;99.90
63260;DHT22;49390;51.380;0.098;2023-02-28T05:36:46;2.70;99.90
63260;DHT22;49390;51.380;0.098;2023-02-28T05:39:14;2.70;99.90
63260;DHT22;49390;51.380;0.098;2023-02-28T05:41:43;2.60;99.90
63260;DHT22;49390;51.380;0.098;2023-02-28T05:44:11;2.70;99.90
63260;DHT22;49390;51.380;0.098;2023-02-28T05:46:40;2.70;99.90
63260;DHT22;49390;51.380;0.098;2023-02-28T05:49:10;2.70;99.90
63260;DHT22;49390;51.380;0.098;2023-02-28T05:51:38;2.70;99.90
63260;DHT22;49390;51.380;0.098;2023-02-28T05:54:08;2.70;99.90
63260;DHT22;49390;51.380;0.098;2023-02-28T05:56:35;2.80;99.90
63260;DHT22;49390;51.380;0.098;2023-02-28T05:59:06;2.80;99.90
63260;DHT22;49390;51.380;0.098;2023-02-28T06:01:39;2.80;99.90
63260;DHT22;49390;51.380;0.098;2023-02-28T06:04:09;2.90;99.90
63260;DHT22;49390;51.380;0.098;2023-02-28T06:06:55;2.90;99.90
63260;DHT22;49390;51.380;0.098;2023-02-28T06:09:27;3.00;99.90
63260;DHT22;49390;51.380;0.098;2023-02-28T06:12:01;3.00;99.90
63260;DHT22;49390;51.380;0.098;2023-02-28T06:14:32;3.00;99.90
63260;DHT22;49390;51.380;0.098;2023-02-28T06:17:01;3.10;99.90
63260;DHT22;49390;51.380;0.098;2023-02-28T06:19:31;3.10;99.90
63260;DHT22;49390;51.380;0.098;2023-02-28T06:21:59;3.10;99.90
63260;DHT22;49390;51.380;0.098;2023-02-28T06:24:28;3.20;99.90
63260;DHT22;49390;51.380;0.098;2023-02-28T06:26:56;3.20;99.90
63260;DHT22;49390;51.380;0.098;2023-02-28T06:29:25;3.20;99.90
63260;DHT22;49390;51.380;0.098;2023-02-28T06:31:53;3.20;99.90
63260;DHT22;49390;51.380;0.098;2023-02-28T06:34:21;3.30;99.90
63260;DHT22;49390;51.380;0.098;2023-02-28T06:36:52;3.30;99.90
63260;DHT22;49390;51.380;0.098;2023-02-28T06:39:22;3.30;99.90
63260;DHT22;49390;51.380;0.098;2023-02-28T06:41:50;3.30;99.90
63260;DHT22;49390;51.380;0.098;2023-02-28T06:46:46;3.60;99.90
63260;DHT22;49390;51.380;0.098;2023-02-28T06:49:14;3.30;99.90
63260;DHT22;49390;51.380;0.098;2023-02-28T06:51:44;3.40;99.90
63260;DHT22;49390;51.380;0.098;2023-02-28T06:54:15;3.40;99.90
63260;DHT22;49390;51.380;0.098;2023-02-28T06:56:43;3.40;99.90
63260;DHT22;49390;51.380;0.098;2023-02-28T06:59:11;3.50;99.90
63260;DHT22;49390;51.380;0.098;2023-02-28T07:01:39;3.50;99.90
63260;DHT22;49390;51.380;0.098;2023-02-28T07:04:07;3.50;99.90
63260;DHT22;49390;51.380;0.098;2023-02-28T07:06:35;3.50;99.90
63260;DHT22;49390;51.380;0.098;2023-02-28T07:09:03;3.50;99.90
63260;DHT22;49390;51.380;0.098;2023-02-28T07:11:31;3.50;99.90
63260;DHT22;49390;51.380;0.098;2023-02-28T07:14:00;3.60;99.90
63260;DHT22;49390;51.380;0.098;2023-02-28T07:16:28;3.60;99.90
63260;DHT22;49390;51.380;0.098;2023-02-28T07:18:56;3.60;99.90
63260;DHT22;49390;51.380;0.098;2023-02-28T07:21:24;3.60;99.90
63260;DHT22;49390;51.380;0.098;2023-02-28T07:23:56;3.70;99.90
63260;DHT22;49390;51.380;0.098;2023-02-28T07:26:24;3.70;99.90
63260;DHT22;49390;51.380;0.098;2023-02-28T07:28:52;3.70;99.90
63260;DHT22;49390;51.380;0.098;2023-02-28T07:31:20;3.70;99.90
63260;DHT22;49390;51.380;0.098;2023-02-28T07:33:48;3.80;99.90
63260;DHT22;49390;51.380;0.098;2023-02-28T07:36:17;3.80;99.90
63260;DHT22;49390;51.380;0.098;2023-02-28T07:38:47;3.90;99.90
63260;DHT22;49390;51.380;0.098;2023-02-28T07:41:19;3.90;99.90
63260;DHT22;49390;51.380;0.098;2023-02-28T07:43:47;4.00;99.90
63260;DHT22;49390;51.380;0.098;2023-02-28T07:46:16;4.00;99.90
63260;DHT22;49390;51.380;0.098;2023-02-28T07:48:45;4.10;99.90
63260;DHT22;49390;51.380;0.098;2023-02-28T07:51:13;4.10;99.90
63260;DHT22;49390;51.380;0.098;2023-02-28T07:53:41;4.20;99.90
63260;DHT22;49390;51.380;0.098;2023-02-28T07:56:09;4.20;99.90
63260;DHT22;49390;51.380;0.098;2023-02-28T07:58:38;4.20;99.90
63260;DHT22;49390;51.380;0.098;2023-02-28T08:01:10;4.20;99.90
63260;DHT22;49390;51.380;0.098;2023-02-28T08:03:39;4.30;99.90
63260;DHT22;49390;51.380;0.098;2023-02-28T08:06:11;4.40;99.90
63260;DHT22;49390;51.380;0.098;2023-02-28T08:08:42;4.40;99.90
63260;DHT22;49390;51.380;0.098;2023-02-28T08:11:11;4.50;99.90
63260;DHT22;49390;51.380;0.098;2023-02-28T08:13:39;4.60;99.90
63260;DHT22;49390;51.380;0.098;2023-02-28T08:16:11;4.60;99.90
63260;DHT22;49390;51.380;0.098;2023-02-28T08:18:39;4.70;99.90
63260;DHT22;49390;51.380;0.098;2023-02-28T08:21:08;4.70;99.90
63260;DHT22;49390;51.380;0.098;2023-02-28T08:23:36;4.70;99.90
63260;DHT22;49390;51.380;0.098;2023-02-28T08:26:04;4.80;99.90
63260;DHT22;49390;51.380;0.098;2023-02-28T08:28:32;4.90;99.90
63260;DHT22;49390;51.380;0.098;2023-02-28T08:31:00;4.90;99.90
63260;DHT22;49390;51.380;0.098;2023-02-28T08:33:28;5.00;99.90
63260;DHT22;49390;51.380;0.098;2023-02-28T08:35:56;5.00;99.90
63260;DHT22;49390;51.380;0.098;2023-02-28T08:38:24;5.10;99.90
63260;DHT22;49390;51.380;0.098;2023-02-28T08:41:03;5.20;99.90
63260;DHT22;49390;51.380;0.098;2023-02-28T08:43:34;5.40;99.90
63260;DHT22;49390;51.380;0.098;2023-02-28T08:46:02;5.40;99.90
63260;DHT22;49390;51.380;0.098;2023-02-28T08:48:33;5.40;99.90
63260;DHT22;49390;51.380;0.098;2023-02-28T08:51:03;5.60;99.90
63260;DHT22;49390;51.380;0.098;2023-02-28T08:53:39;5.70;99.90
63260;DHT22;49390;51.380;0.098;2023-02-28T08:56:15;5.80;99.90
63260;DHT22;49390;51.380;0.098;2023-02-28T08:58:45;5.80;99.90
63260;DHT22;49390;51.380;0.098;2023-02-28T09:01:19;5.90;99.90
63260;DHT22;49390;51.380;0.098;2023-02-28T09:03:49;5.90;99.90
63260;DHT22;49390;51.380;0.098;2023-02-28T09:06:19;6.10;99.90
63260;DHT22;49390;51.380;0.098;2023-02-28T09:08:48;6.20;99.90
63260;DHT22;49390;51.380;0.098;2023-02-28T09:11:16;6.30;99.90
63260;DHT22;49390;51.380;0.098;2023-02-28T09:13:45;6.30;99.90
63260;DHT22;49390;51.380;0.098;2023-02-28T09:16:14;6.40;99.90
63260;DHT22;49390;51.380;0.098;2023-02-28T09:18:44;6.50;99.90
63260;DHT22;49390;51.380;0.098;2023-02-28T09:21:14;6.70;99.90
63260;DHT22;49390;51.380;0.098;2023-02-28T09:23:44;6.80;99.90
63260;DHT22;49390;51.380;0.098;2023-02-28T09:26:14;6.90;99.90
63260;DHT22;49390;51.380;0.098;2023-02-28T09:28:43;7.00;99.90
63260;DHT22;49390;51.380;0.098;2023-02-28T09:31:23;6.90;99.90
63260;DHT22;49390;51.380;0.098;2023-02-28T09:33:53;6.90;99.90
63260;DHT22;49390;51.380;0.098;2023-02-28T09:36:23;6.80;99.90
63260;DHT22;49390;51.380;0.098;2023-02-28T09:39:01;6.80;99.90
63260;DHT22;49390;51.380;0.098;2023-02-28T09:41:36;6.80;99.90
63260;DHT22;49390;51.380;0.098;2023-02-28T09:44:16;6.80;99.90
63260;DHT22;49390;51.380;0.098;2023-02-28T09:46:50;6.80;99.90
63260;DHT22;49390;51.380;0.098;2023-02-28T09:49:24;6.80;99.90
63260;DHT22;49390;51.380;0.098;2023-02-28T09:52:00;6.80;99.90
63260;DHT22;49390;51.380;0.098;2023-02-28T09:54:31;6.70;99.90
63260;DHT22;49390;51.380;0.098;2023-02-28T09:57:17;6.70;99.90
63260;DHT22;49390;51.380;0.098;2023-02-28T10:05:03;6.60;99.90
63260;DHT22;49390;51.380;0.098;2023-02-28T10:10:27;6.60;99.90
63260;DHT22;49390;51.380;0.098;2023-02-28T10:12:58;6.60;99.90
63260;DHT22;49390;51.380;0.098;2023-02-28T10:15:30;6.60;99.90
63260;DHT22;49390;51.380;0.098;2023-02-28T10:18:06;6.60;99.90
63260;DHT22;49390;51.380;0.098;2023-02-28T10:20:40;6.70;99.90
63260;DHT22;49390;51.380;0.098;2023-02-28T10:23:14;6.80;99.90
63260;DHT22;49390;51.380;0.098;2023-02-28T10:25:54;6.80;99.90
63260;DHT22;49390;51.380;0.098;2023-02-28T10:28:24;6.80;99.90
63260;DHT22;49390;51.380;0.098;2023-02-28T10:30:54;6.90;99.90
63260;DHT22;49390;51.380;0.098;2023-02-28T10:33:25;7.00;99.90
63260;DHT22;49390;51.380;0.098;2023-02-28T10:35:55;7.00;99.90
63260;DHT22;49390;51.380;0.098;2023-02-28T10:48:40;7.20;99.90
63260;DHT22;49390;51.380;0.098;2023-02-28T10:51:14;7.20;99.90
63260;DHT22;49390;51.380;0.098;2023-02-28T10:53:55;7.20;99.90
63260;DHT22;49390;51.380;0.098;2023-02-28T10:56:30;7.20;99.90
63260;DHT22;49390;51.380;0.098;2023-02-28T11:01:45;7.10;99.90
63260;DHT22;49390;51.380;0.098;2023-02-28T11:04:33;7.10;99.90
63260;DHT22;49390;51.380;0.098;2023-02-28T11:07:23;7.10;99.90
63260;DHT22;49390;51.380;0.098;2023-02-28T11:09:57;7.10;99.90
63260;DHT22;49390;51.380;0.098;2023-02-28T11:12:36;7.10;99.90
63260;DHT22;49390;51.380;0.098;2023-02-28T11:15:27;7.10;99.90
63260;DHT22;49390;51.380;0.098;2023-02-28T11:18:42;7.10;99.90
63260;DHT22;49390;51.380;0.098;2023-02-28T11:20:51;7.10;99.90
63260;DHT22;49390;51.380;0.098;2023-02-28T11:23:21;7.10;99.90
63260;DHT22;49390;51.380;0.098;2023-02-28T11:25:59;7.20;99.90
63260;DHT22;49390;51.380;0.098;2023-02-28T11:28:33;7.10;99.90
63260;DHT22;49390;51.380;0.098;2023-02-28T11:31:20;7.10;99.90
63260;DHT22;49390;51.380;0.098;2023-02-28T11:33:52;7.10;99.90
63260;DHT22;49390;51.380;0.098;2023-02-28T11:38:58;7.10;99.90
63260;DHT22;49390;51.380;0.098;2023-02-28T11:41:38;7.10;99.90
63260;DHT22;49390;51.380;0.098;2023-02-28T11:44:33;7.10;99.90
63260;DHT22;49390;51.380;0.098;2023-02-28T12:01:31;7.20;99.90
63260;DHT22;49390;51.380;0.098;2023-02-28T12:04:25;7.10;99.90
63260;DHT22;49390;51.380;0.098;2023-02-28T12:06:57;7.10;99.90
63260;DHT22;49390;51.380;0.098;2023-02-28T12:20:52;7.30;99.90
63260;DHT22;49390;51.380;0.098;2023-02-28T12:28:52;7.50;99.90
63260;DHT22;49390;51.380;0.098;2023-02-28T12:31:26;7.50;99.90
63260;DHT22;49390;51.380;0.098;2023-02-28T12:34:03;7.50;99.90
63260;DHT22;49390;51.380;0.098;2023-02-28T12:36:34;7.50;99.90
63260;DHT22;49390;51.380;0.098;2023-02-28T12:39:10;7.50;99.90
63260;DHT22;49390;51.380;0.098;2023-02-28T12:44:21;7.50;99.90
63260;DHT22;49390;51.380;0.098;2023-02-28T12:46:55;7.50;99.90
63260;DHT22;49390;51.380;0.098;2023-02-28T12:49:41;7.50;99.90
63260;DHT22;49390;51.380;0.098;2023-02-28T12:52:13;7.50;99.90
63260;DHT22;49390;51.380;0.098;2023-02-28T12:54:53;7.60;99.90
63260;DHT22;49390;51.380;0.098;2023-02-28T12:57:39;7.60;99.90
63260;DHT22;49390;51.380;0.098;2023-02-28T13:00:14;7.60;99.90
63260;DHT22;49390;51.380;0.098;2023-02-28T13:16:57;7.60;99.90
63260;DHT22;49390;51.380;0.098;2023-02-28T13:19:28;7.60;99.90
63260;DHT22;49390;51.380;0.098;2023-02-28T13:21:57;7.60;99.90
63260;DHT22;49390;51.380;0.098;2023-02-28T13:29:43;7.50;99.90
63260;DHT22;49390;51.380;0.098;2023-02-28T13:39:48;7.50;99.90
63260;DHT22;49390;51.380;0.098;2023-02-28T13:47:48;7.50;99.90
63260;DHT22;49390;51.380;0.098;2023-02-28T13:50:23;7.60;99.90
63260;DHT22;49390;51.380;0.098;2023-02-28T13:52:57;7.50;99.90
63260;DHT22;49390;51.380;0.098;2023-02-28T14:03:58;7.60;99.90
63260;DHT22;49390;51.380;0.098;2023-02-28T14:06:34;7.60;99.90
63260;DHT22;49390;51.380;0.098;2023-02-28T14:09:06;7.60;99.90
63260;DHT22;49390;51.380;0.098;2023-02-28T14:11:44;7.60;99.90
63260;DHT22;49390;51.380;0.098;2023-02-28T14:17:03;7.60;99.90
63260;DHT22;49390;51.380;0.098;2023-02-28T14:19:34;7.60;99.90
63260;DHT22;49390;51.380;0.098;2023-02-28T14:22:34;7.50;99.90
63260;DHT22;49390;51.380;0.098;2023-02-28T14:25:36;7.50;99.90
63260;DHT22;49390;51.380;0.098;2023-02-28T14:31:17;7.50;99.90
63260;DHT22;49390;51.380;0.098;2023-02-28T14:34:26;7.50;99.90
63260;DHT22;49390;51.380;0.098;2023-02-28T14:37:02;7.50;99.90
63260;DHT22;49390;51.380;0.098;2023-02-28T14:39:31;7.50;99.90
63260;DHT22;49390;51.380;0.098;2023-02-28T14:42:00;7.50;99.90
63260;DHT22;49390;51.380;0.098;2023-02-28T14:44:32;7.50;99.90
63260;DHT22;49390;51.380;0.098;2023-02-28T14:47:01;7.60;99.90
63260;DHT22;49390;51.380;0.098;2023-02-28T14:49:37;7.60;99.90
63260;DHT22;49390;51.380;0.098;2023-02-28T14:54:38;7.70;99.90
63260;DHT22;49390;51.380;0.098;2023-02-28T14:57:19;7.60;99.90
63260;DHT22;49390;51.380;0.098;2023-02-28T14:59:57;7.60;99.90
63260;DHT22;49390;51.380;0.098;2023-02-28T15:02:31;7.60;99.90
63260;DHT22;49390;51.380;0.098;2023-02-28T15:07:49;7.60;99.90
63260;DHT22;49390;51.380;0.098;2023-02-28T15:10:28;7.60;99.90
63260;DHT22;49390;51.380;0.098;2023-02-28T15:13:04;7.60;99.90
63260;DHT22;49390;51.380;0.098;2023-02-28T15:16:01;7.60;99.90
63260;DHT22;49390;51.380;0.098;2023-02-28T15:18:54;7.60;99.90
63260;DHT22;49390;51.380;0.098;2023-02-28T15:26:33;7.70;99.90
63260;DHT22;49390;51.380;0.098;2023-02-28T15:29:18;7.70;99.90
63260;DHT22;49390;51.380;0.098;2023-02-28T15:32:01;7.70;99.90
63260;DHT22;49390;51.380;0.098;2023-02-28T15:34:43;7.60;99.90
63260;DHT22;49390;51.380;0.098;2023-02-28T15:37:45;7.60;99.90
63260;DHT22;49390;51.380;0.098;2023-02-28T15:40:18;7.50;99.90
63260;DHT22;49390;51.380;0.098;2023-02-28T15:43:06;7.50;99.90
63260;DHT22;49390;51.380;0.098;2023-02-28T15:45:36;7.50;99.90
63260;DHT22;49390;51.380;0.098;2023-02-28T15:48:15;7.50;99.90
63260;DHT22;49390;51.380;0.098;2023-02-28T15:50:44;7.50;99.90
63260;DHT22;49390;51.380;0.098;2023-02-28T15:53:17;7.50;99.90
63260;DHT22;49390;51.380;0.098;2023-02-28T15:55:58;7.70;99.90
63260;DHT22;49390;51.380;0.098;2023-02-28T15:58:26;7.50;99.90
63260;DHT22;49390;51.380;0.098;2023-02-28T16:01:06;7.50;99.90
63260;DHT22;49390;51.380;0.098;2023-02-28T16:03:42;7.50;99.90
63260;DHT22;49390;51.380;0.098;2023-02-28T16:08:44;7.50;99.90
63260;DHT22;49390;51.380;0.098;2023-02-28T16:11:13;7.50;99.90
63260;DHT22;49390;51.380;0.098;2023-02-28T16:13:40;7.50;99.90
63260;DHT22;49390;51.380;0.098;2023-02-28T16:16:14;7.50;99.90
63260;DHT22;49390;51.380;0.098;2023-02-28T16:18:42;7.40;99.90
63260;DHT22;49390;51.380;0.098;2023-02-28T16:21:10;7.50;99.90
63260;DHT22;49390;51.380;0.098;2023-02-28T16:23:39;7.50;99.90
63260;DHT22;49390;51.380;0.098;2023-02-28T16:26:08;7.50;99.90
63260;DHT22;49390;51.380;0.098;2023-02-28T16:28:43;7.50;99.90
63260;DHT22;49390;51.380;0.098;2023-02-28T16:31:12;7.50;99.90
63260;DHT22;49390;51.380;0.098;2023-02-28T16:33:47;7.50;99.90
63260;DHT22;49390;51.380;0.098;2023-02-28T16:36:16;7.50;99.90
63260;DHT22;49390;51.380;0.098;2023-02-28T16:38:45;7.50;99.90
63260;DHT22;49390;51.380;0.098;2023-02-28T16:41:22;7.50;99.90
63260;DHT22;49390;51.380;0.098;2023-02-28T16:43:53;7.50;99.90
63260;DHT22;49390;51.380;0.098;2023-02-28T16:46:22;7.50;99.90
63260;DHT22;49390;51.380;0.098;2023-02-28T16:48:50;7.50;99.90
63260;DHT22;49390;51.380;0.098;2023-02-28T16:51:19;7.50;99.90
63260;DHT22;49390;51.380;0.098;2023-02-28T16:53:47;7.50;99.90
63260;DHT22;49390;51.380;0.098;2023-02-28T16:56:24;7.50;99.90
63260;DHT22;49390;51.380;0.098;2023-02-28T16:58:56;7.50;99.90
63260;DHT22;49390;51.380;0.098;2023-02-28T17:01:25;7.50;99.90
63260;DHT22;49390;51.380;0.098;2023-02-28T17:03:55;7.50;99.90
63260;DHT22;49390;51.380;0.098;2023-02-28T17:06:26;7.50;99.90
63260;DHT22;49390;51.380;0.098;2023-02-28T17:08:58;7.50;99.90
63260;DHT22;49390;51.380;0.098;2023-02-28T17:11:27;7.50;99.90
63260;DHT22;49390;51.380;0.098;2023-02-28T17:13:55;7.50;99.90
63260;DHT22;49390;51.380;0.098;2023-02-28T17:16:32;7.50;99.90
63260;DHT22;49390;51.380;0.098;2023-02-28T17:19:03;7.50;99.90
63260;DHT22;49390;51.380;0.098;2023-02-28T17:21:32;7.50;99.90
63260;DHT22;49390;51.380;0.098;2023-02-28T17:24:00;7.50;99.90
63260;DHT22;49390;51.380;0.098;2023-02-28T17:26:29;7.50;99.90
63260;DHT22;49390;51.380;0.098;2023-02-28T17:28:59;7.50;99.90
63260;DHT22;49390;51.380;0.098;2023-02-28T17:31:27;7.40;99.90
63260;DHT22;49390;51.380;0.098;2023-02-28T17:33:56;7.40;99.90
63260;DHT22;49390;51.380;0.098;2023-02-28T17:36:26;7.40;99.90
63260;DHT22;49390;51.380;0.098;2023-02-28T17:38:55;7.30;99.90
63260;DHT22;49390;51.380;0.098;2023-02-28T17:41:23;7.30;99.90
63260;DHT22;49390;51.380;0.098;2023-02-28T17:43:53;7.30;99.90
63260;DHT22;49390;51.380;0.098;2023-02-28T17:46:23;7.30;99.90
63260;DHT22;49390;51.380;0.098;2023-02-28T17:48:55;7.30;99.90
63260;DHT22;49390;51.380;0.098;2023-02-28T17:51:35;7.30;99.90
63260;DHT22;49390;51.380;0.098;2023-02-28T17:54:03;7.30;99.90
63260;DHT22;49390;51.380;0.098;2023-02-28T17:56:31;7.30;99.90
63260;DHT22;49390;51.380;0.098;2023-02-28T17:58:59;7.30;99.90
63260;DHT22;49390;51.380;0.098;2023-02-28T18:01:28;7.30;99.90
63260;DHT22;49390;51.380;0.098;2023-02-28T18:03:56;7.30;99.90
63260;DHT22;49390;51.380;0.098;2023-02-28T18:06:44;7.30;99.90
63260;DHT22;49390;51.380;0.098;2023-02-28T18:09:22;7.30;99.90
63260;DHT22;49390;51.380;0.098;2023-02-28T18:11:51;7.30;99.90
63260;DHT22;49390;51.380;0.098;2023-02-28T18:14:21;7.30;99.90
63260;DHT22;49390;51.380;0.098;2023-02-28T18:16:53;7.30;99.90
63260;DHT22;49390;51.380;0.098;2023-02-28T18:19:21;7.30;99.90
63260;DHT22;49390;51.380;0.098;2023-02-28T18:21:51;7.30;99.90
63260;DHT22;49390;51.380;0.098;2023-02-28T18:24:21;7.30;99.90
63260;DHT22;49390;51.380;0.098;2023-02-28T18:26:49;7.30;99.90
63260;DHT22;49390;51.380;0.098;2023-02-28T18:29:26;7.30;99.90
63260;DHT22;49390;51.380;0.098;2023-02-28T18:31:55;7.30;99.90
63260;DHT22;49390;51.380;0.098;2023-02-28T18:34:24;7.30;99.90
63260;DHT22;49390;51.380;0.098;2023-02-28T18:36:52;7.30;99.90
63260;DHT22;49390;51.380;0.098;2023-02-28T18:39:20;7.30;99.90
63260;DHT22;49390;51.380;0.098;2023-02-28T18:41:48;7.30;99.90
63260;DHT22;49390;51.380;0.098;2023-02-28T18:44:19;7.30;99.90
63260;DHT22;49390;51.380;0.098;2023-02-28T18:46:48;7.30;99.90